Time;durP1;ratioP1;P1;durP2;ratioP2;P2;SDS_P1;SDS_P2;PMS_P1;PMS_P2;Temp;Humidity;BMP_temperature;BMP_pressure;BME280_temperature;BME280_humidity;BME280_pressure;Samples;Min_cycle;Max_cycle;Signal;HPM_P1;HPM_P2
2023/10/13 00:01:51;;;;;;;15.10;9.90;;;17.50;99.90;;;;;;5021504;28;20960;-70
2023/10/13 00:04:21;;;;;;;13.30;11.20;;;17.50;99.90;;;;;;5019767;28;20533;-70
2023/10/13 00:06:47;;;;;;;13.23;10.70;;;17.60;99.90;;;;;;5028380;28;20425;-70
2023/10/13 00:09:14;;;;;;;14.37;10.80;;;17.60;99.90;;;;;;5019434;28;20422;-70
2023/10/13 00:11:47;;;;;;;11.70;10.10;;;17.60;99.90;;;;;;5027391;28;20265;-70
2023/10/13 00:14:16;;;;;;;11.73;9.60;;;17.60;99.90;;;;;;5016686;28;20504;-70
2023/10/13 00:17:00;;;;;;;12.10;9.57;;;17.60;99.90;;;;;;5018291;28;20421;-70
2023/10/13 00:19:28;;;;;;;12.10;9.57;;;17.60;99.90;;;;;;5007953;28;20414;-70
2023/10/13 00:21:56;;;;;;;9.93;9.00;;;17.50;99.90;;;;;;5018617;28;20430;-69
2023/10/13 00:24:23;;;;;;;14.70;9.67;;;17.50;99.90;;;;;;5024146;28;20448;-69
2023/10/13 00:26:49;;;;;;;11.30;8.90;;;17.50;99.90;;;;;;5023115;28;20537;-69
2023/10/13 00:29:17;;;;;;;10.73;8.87;;;17.50;99.90;;;;;;5023190;28;20851;-70
2023/10/13 00:31:48;;;;;;;10.90;9.27;;;17.50;99.90;;;;;;5021899;28;20178;-70
2023/10/13 00:34:32;;;;;;;14.07;9.90;;;17.50;99.90;;;;;;5023157;28;20552;-71
2023/10/13 00:39:45;;;;;;;10.33;9.23;;;17.50;99.90;;;;;;5022943;28;20910;-71
2023/10/13 00:42:25;;;;;;;10.77;9.67;;;17.50;99.90;;;;;;5024595;28;20429;-71
2023/10/13 00:44:54;;;;;;;9.73;8.37;;;17.60;99.90;;;;;;5013767;28;20471;-70
2023/10/13 00:47:49;;;;;;;11.53;9.73;;;17.60;99.90;;;;;;5022655;28;20421;-71
2023/10/13 00:50:17;;;;;;;11.30;9.20;;;17.60;99.90;;;;;;5022789;28;20917;-71
2023/10/13 00:52:46;;;;;;;10.53;8.63;;;17.60;99.90;;;;;;5021038;28;20416;-70
2023/10/13 00:55:14;;;;;;;9.70;8.67;;;17.60;99.90;;;;;;5010161;28;20466;-71
2023/10/13 00:57:40;;;;;;;12.10;8.47;;;17.60;99.90;;;;;;5031903;28;20413;-71
2023/10/13 01:00:19;;;;;;;9.10;7.90;;;17.60;99.90;;;;;;5024132;28;20821;-71
2023/10/13 01:02:54;;;;;;;12.40;9.37;;;17.60;99.90;;;;;;5011062;28;20938;-71
2023/10/13 01:05:21;;;;;;;9.37;8.27;;;17.70;99.90;;;;;;5021484;28;20424;-72
2023/10/13 01:07:54;;;;;;;12.43;9.80;;;17.70;99.90;;;;;;5023925;28;20449;-71
2023/10/13 01:10:27;;;;;;;11.30;9.30;;;17.70;99.90;;;;;;5020001;28;20956;-70
2023/10/13 01:12:55;;;;;;;12.77;9.20;;;17.70;99.90;;;;;;5021608;28;20821;-72
2023/10/13 01:15:21;;;;;;;10.20;9.03;;;17.70;99.90;;;;;;5016871;28;20834;-71
2023/10/13 01:17:48;;;;;;;10.20;9.30;;;17.70;99.90;;;;;;5022464;28;20424;-72
2023/10/13 01:20:25;;;;;;;8.60;7.70;;;17.70;99.90;;;;;;5023076;28;21230;-71
2023/10/13 01:23:01;;;;;;;13.80;9.70;;;17.70;99.90;;;;;;5007478;28;20802;-70
2023/10/13 01:25:27;;;;;;;10.83;9.00;;;17.70;99.90;;;;;;5018968;28;20425;-71
2023/10/13 01:27:53;;;;;;;12.77;9.40;;;17.70;99.90;;;;;;5023675;28;20430;-71
2023/10/13 01:30:26;;;;;;;9.43;8.53;;;17.70;99.90;;;;;;5019689;28;20193;-71
2023/10/13 01:32:53;;;;;;;12.00;9.37;;;17.60;99.90;;;;;;5026173;28;20874;-71
2023/10/13 01:35:25;;;;;;;12.70;9.40;;;17.60;99.90;;;;;;5020168;28;20426;-71
2023/10/13 01:37:51;;;;;;;10.03;8.90;;;17.60;99.90;;;;;;5024342;28;20437;-70
2023/10/13 01:40:19;;;;;;;12.10;8.30;;;17.60;99.90;;;;;;5024748;28;20421;-71
2023/10/13 01:42:46;;;;;;;10.83;9.00;;;17.60;99.90;;;;;;5033589;28;20961;-70
2023/10/13 01:45:13;;;;;;;12.73;8.93;;;17.70;99.90;;;;;;5021283;28;20437;-72
2023/10/13 01:47:39;;;;;;;10.07;6.73;;;17.70;99.90;;;;;;5020597;28;20417;-70
2023/10/13 01:50:21;;;;;;;8.70;7.83;;;17.70;99.90;;;;;;5022545;28;20517;-70
2023/10/13 01:52:47;;;;;;;9.20;8.23;;;17.70;99.90;;;;;;5018900;28;20413;-71
2023/10/13 01:55:14;;;;;;;10.90;8.23;;;17.70;99.90;;;;;;5034028;28;20515;-71
2023/10/13 01:57:42;;;;;;;10.63;9.53;;;17.70;99.90;;;;;;5021458;28;20463;-70
2023/10/13 02:00:18;;;;;;;10.43;8.90;;;17.70;99.90;;;;;;5024768;28;20428;-72
2023/10/13 02:02:49;;;;;;;10.60;8.80;;;17.70;99.90;;;;;;5010293;28;20793;-71
2023/10/13 02:05:17;;;;;;;8.63;7.83;;;17.70;99.90;;;;;;5020993;28;20429;-71
2023/10/13 02:07:45;;;;;;;12.03;9.00;;;17.70;99.90;;;;;;5024155;28;20512;-70
2023/10/13 02:10:13;;;;;;;9.63;8.60;;;17.70;99.90;;;;;;5020109;28;20429;-71
2023/10/13 02:12:42;;;;;;;11.10;8.57;;;17.70;99.90;;;;;;5007362;28;20432;-71
2023/10/13 02:15:25;;;;;;;10.87;7.90;;;17.70;99.90;;;;;;5013111;28;20501;-70
2023/10/13 02:17:54;;;;;;;9.10;8.20;;;17.70;99.90;;;;;;5014273;28;20428;-71
2023/10/13 02:20:23;;;;;;;11.30;8.40;;;17.70;99.90;;;;;;5021462;28;20438;-71
2023/10/13 02:22:49;;;;;;;10.30;9.20;;;17.70;99.90;;;;;;5015879;28;20427;-71
2023/10/13 02:25:34;;;;;;;9.90;8.90;;;17.70;99.90;;;;;;5007243;28;20990;-71
2023/10/13 02:28:00;;;;;;;10.67;7.90;;;17.70;99.90;;;;;;5012498;28;20679;-71
2023/10/13 02:30:28;;;;;;;10.07;8.00;;;17.70;99.90;;;;;;5018876;28;20450;-70
2023/10/13 02:32:55;;;;;;;9.40;8.00;;;17.70;99.90;;;;;;5023616;28;20179;-71
2023/10/13 02:35:29;;;;;;;11.03;8.03;;;17.60;99.90;;;;;;5015067;28;20450;-72
2023/10/13 02:37:58;;;;;;;8.73;7.83;;;17.70;99.90;;;;;;5020615;28;20414;-70
2023/10/13 02:40:24;;;;;;;10.23;9.07;;;17.70;99.90;;;;;;5024528;28;20449;-71
2023/10/13 02:42:49;;;;;;;12.17;7.77;;;17.70;99.90;;;;;;5019883;28;20524;-71
2023/10/13 02:45:15;;;;;;;11.23;8.97;;;17.70;99.90;;;;;;5021830;28;20182;-71
2023/10/13 02:47:44;;;;;;;8.23;7.43;;;17.70;99.90;;;;;;5036893;28;20213;-70
2023/10/13 02:50:13;;;;;;;8.87;7.97;;;17.70;99.90;;;;;;5022717;28;20193;-71
2023/10/13 02:52:41;;;;;;;9.93;8.87;;;17.70;99.90;;;;;;5019265;28;20421;-70
2023/10/13 02:55:10;;;;;;;9.63;8.50;;;17.70;99.90;;;;;;5021068;28;20472;-70
2023/10/13 02:57:36;;;;;;;9.77;8.00;;;17.70;99.90;;;;;;5016702;28;20441;-70
2023/10/13 03:00:23;;;;;;;8.80;7.90;;;17.70;99.90;;;;;;5010170;28;20418;-71
2023/10/13 03:02:58;;;;;;;10.30;7.10;;;17.70;99.90;;;;;;5015358;28;20428;-71
2023/10/13 03:05:23;;;;;;;10.20;8.20;;;17.70;99.90;;;;;;5018051;28;20422;-70
2023/10/13 03:07:50;;;;;;;10.60;8.10;;;17.70;99.90;;;;;;5026258;28;20882;-71
2023/10/13 03:10:19;;;;;;;9.77;8.87;;;17.70;99.90;;;;;;5027462;28;20210;-71
2023/10/13 03:12:48;;;;;;;9.20;7.43;;;17.70;99.90;;;;;;5024404;28;20448;-70
2023/10/13 03:15:28;;;;;;;9.03;8.13;;;17.70;99.90;;;;;;5025021;28;20696;-71
2023/10/13 03:17:54;;;;;;;12.27;8.47;;;17.70;99.90;;;;;;5016102;28;20512;-71
2023/10/13 03:20:30;;;;;;;11.43;8.20;;;17.80;99.90;;;;;;5022606;28;20977;-71
2023/10/13 03:22:56;;;;;;;8.17;7.40;;;17.80;99.90;;;;;;5029681;28;20416;-70
2023/10/13 03:25:42;;;;;;;9.80;8.00;;;17.70;99.90;;;;;;5019534;28;20428;-70
2023/10/13 03:28:13;;;;;;;11.07;8.50;;;17.70;99.90;;;;;;5024230;28;20175;-70
2023/10/13 03:30:41;;;;;;;9.40;8.50;;;17.70;99.90;;;;;;5021695;28;20424;-70
2023/10/13 03:33:11;;;;;;;8.67;7.60;;;17.70;99.90;;;;;;5023274;28;20425;-71
2023/10/13 03:35:38;;;;;;;9.13;8.20;;;17.70;99.90;;;;;;5021722;28;20491;-71
2023/10/13 03:38:11;;;;;;;11.60;8.67;;;17.70;99.90;;;;;;5018955;28;20414;-70
2023/10/13 03:40:37;;;;;;;12.50;8.60;;;17.70;99.90;;;;;;5013900;28;20814;-70
2023/10/13 03:45:39;;;;;;;9.70;8.23;;;17.60;99.90;;;;;;5027844;28;20504;-70
2023/10/13 03:48:09;;;;;;;8.97;7.67;;;17.60;99.90;;;;;;5020196;28;20451;-70
2023/10/13 03:50:57;;;;;;;9.37;8.47;;;17.60;99.90;;;;;;5026028;28;20887;-70
2023/10/13 03:53:25;;;;;;;11.50;9.10;;;17.50;99.90;;;;;;5025893;28;20469;-70
2023/10/13 03:56:07;;;;;;;8.77;7.53;;;17.60;99.90;;;;;;5020885;28;20516;-70
2023/10/13 03:58:38;;;;;;;9.63;7.30;;;17.60;99.90;;;;;;5026381;28;21075;-71
2023/10/13 04:01:05;;;;;;;10.80;7.97;;;17.60;99.90;;;;;;5024831;28;20523;-71
2023/10/13 04:03:56;;;;;;;13.60;8.37;;;17.60;99.90;;;;;;5025147;28;20487;-71
2023/10/13 04:09:54;;;;;;;8.77;7.90;;;17.60;99.90;;;;;;5014850;28;20918;-70
2023/10/13 04:17:29;;;;;;;12.97;8.63;;;17.50;99.90;;;;;;5017732;28;20472;-71
2023/10/13 04:28:34;;;;;;;11.43;8.27;;;17.60;99.90;;;;;;5015779;28;20429;-71
2023/10/13 04:31:11;;;;;;;10.33;7.87;;;17.60;99.90;;;;;;5016516;28;20500;-71
2023/10/13 04:34:17;;;;;;;10.40;8.00;;;17.60;99.90;;;;;;5023330;28;20526;-70
2023/10/13 04:41:36;;;;;;;9.27;8.30;;;17.60;99.90;;;;;;5015033;28;20907;-71
2023/10/13 04:44:23;;;;;;;8.83;8.00;;;17.60;99.90;;;;;;5009696;28;20460;-70
2023/10/13 04:49:49;;;;;;;12.57;8.70;;;17.60;99.90;;;;;;5026405;28;20417;-70
2023/10/13 04:52:38;;;;;;;9.47;7.70;;;17.70;99.90;;;;;;5015837;28;20178;-70
2023/10/13 04:58:14;;;;;;;13.20;9.10;;;17.70;99.90;;;;;;4959229;28;20943;-70
2023/10/13 05:00:56;;;;;;;9.10;8.03;;;17.70;99.90;;;;;;5008489;28;20433;-71
2023/10/13 05:44:33;;;;;;;9.13;8.20;;;17.70;99.90;;;;;;5009769;28;20418;-70
2023/10/13 06:28:40;;;;;;;10.07;6.17;;;17.90;99.90;;;;;;5022381;28;20918;-70
2023/10/13 06:31:07;;;;;;;9.03;7.10;;;17.80;99.90;;;;;;5010768;28;20424;-70
2023/10/13 06:33:33;;;;;;;7.83;7.03;;;17.80;99.90;;;;;;5020278;28;20461;-70
2023/10/13 06:36:03;;;;;;;6.90;6.30;;;17.80;99.90;;;;;;5026090;28;20423;-70
2023/10/13 06:38:54;;;;;;;11.30;6.90;;;17.80;99.90;;;;;;5017564;28;20434;-71
2023/10/13 06:41:30;;;;;;;8.20;6.03;;;17.80;99.90;;;;;;5022108;28;20484;-71
2023/10/13 06:44:05;;;;;;;7.43;6.13;;;17.80;99.90;;;;;;5019877;28;20448;-71
2023/10/13 06:46:33;;;;;;;6.80;6.10;;;17.90;99.90;;;;;;5015471;28;20432;-71
2023/10/13 06:49:00;;;;;;;12.10;6.70;;;17.90;99.90;;;;;;5014485;28;20417;-71
2023/10/13 06:51:30;;;;;;;10.37;5.80;;;17.90;99.90;;;;;;5019368;28;20422;-71
2023/10/13 06:53:56;;;;;;;9.20;6.43;;;17.90;99.90;;;;;;5024130;28;20457;-71
2023/10/13 06:56:27;;;;;;;6.93;6.00;;;17.90;99.90;;;;;;5016372;28;20799;-71
2023/10/13 06:58:59;;;;;;;9.40;7.20;;;17.90;99.90;;;;;;5022254;28;20449;-71
2023/10/13 07:01:28;;;;;;;10.27;7.63;;;18.00;99.90;;;;;;5024469;28;20784;-71
2023/10/13 07:04:00;;;;;;;7.10;6.40;;;18.00;99.90;;;;;;5018889;28;20446;-71
2023/10/13 07:06:27;;;;;;;11.57;7.47;;;18.00;99.90;;;;;;5022774;28;20429;-71
2023/10/13 07:08:52;;;;;;;9.67;7.73;;;18.00;99.90;;;;;;5021467;28;20424;-72
2023/10/13 07:11:37;;;;;;;15.37;9.00;;;18.10;99.90;;;;;;5022995;28;21055;-71
2023/10/13 07:14:10;;;;;;;10.30;7.23;;;18.10;99.90;;;;;;5014299;28;20229;-71
2023/10/13 07:16:59;;;;;;;8.50;7.20;;;18.00;99.90;;;;;;5020986;28;20491;-70
2023/10/13 07:19:29;;;;;;;7.20;6.50;;;18.00;99.90;;;;;;5021404;28;20421;-71
2023/10/13 07:21:59;;;;;;;13.90;7.93;;;18.00;99.90;;;;;;5016665;28;20422;-71
2023/10/13 07:24:31;;;;;;;10.60;7.43;;;18.00;99.90;;;;;;5021954;28;20441;-71
2023/10/13 07:27:07;;;;;;;13.97;8.10;;;18.10;99.90;;;;;;5018779;28;20436;-71
2023/10/13 07:29:36;;;;;;;10.53;7.10;;;18.10;99.90;;;;;;5015026;28;20842;-71
2023/10/13 07:32:02;;;;;;;13.30;7.47;;;18.10;99.90;;;;;;5014176;28;20445;-71
2023/10/13 07:34:35;;;;;;;13.47;7.37;;;18.10;99.90;;;;;;5020035;28;20468;-71
2023/10/13 07:37:01;;;;;;;9.03;6.70;;;18.20;99.90;;;;;;5023369;28;20417;-71
2023/10/13 07:39:33;;;;;;;9.10;6.50;;;18.20;99.90;;;;;;5020310;28;20413;-71
2023/10/13 07:42:19;;;;;;;16.20;7.93;;;18.20;99.90;;;;;;5009727;28;20706;-71
2023/10/13 07:44:48;;;;;;;10.20;7.57;;;18.30;99.90;;;;;;5018381;28;20433;-71
2023/10/13 07:47:14;;;;;;;20.47;7.60;;;18.30;99.90;;;;;;5021759;28;20455;-71
2023/10/13 07:49:41;;;;;;;10.67;7.33;;;18.40;99.90;;;;;;5022695;28;20835;-71
2023/10/13 07:54:56;;;;;;;11.57;7.23;;;18.40;99.90;;;;;;5012252;28;20452;-71
2023/10/13 07:57:29;;;;;;;9.70;7.00;;;18.40;99.90;;;;;;5019851;28;20508;-71
2023/10/13 08:00:06;;;;;;;13.27;7.10;;;18.50;99.90;;;;;;5038943;28;20504;-72
2023/10/13 08:02:48;;;;;;;15.30;7.87;;;18.60;99.90;;;;;;5045165;28;20508;-71
2023/10/13 08:05:39;;;;;;;10.97;7.00;;;18.60;99.90;;;;;;5031404;28;20449;-71
2023/10/13 08:08:14;;;;;;;11.73;6.70;;;18.70;99.90;;;;;;5022149;28;20483;-71
2023/10/13 08:10:44;;;;;;;10.47;6.90;;;18.70;99.90;;;;;;5020366;28;20465;-71
2023/10/13 08:13:12;;;;;;;10.57;7.53;;;18.70;99.90;;;;;;5024392;28;20455;-71
2023/10/13 08:15:47;;;;;;;14.33;7.60;;;18.60;99.90;;;;;;5024033;28;20477;-71
2023/10/13 08:21:16;;;;;;;11.93;6.97;;;18.70;99.90;;;;;;5011579;28;20803;-71
2023/10/13 08:34:49;;;;;;;8.37;6.03;;;19.40;99.90;;;;;;5023910;28;20472;-70
2023/10/13 08:59:04;;;;;;;7.83;6.37;;;20.40;99.90;;;;;;5025126;28;20416;-71
2023/10/13 09:01:33;;;;;;;10.17;5.77;;;20.50;99.90;;;;;;5021588;28;20574;-71
2023/10/13 09:06:47;;;;;;;8.73;5.40;;;20.70;99.90;;;;;;5026760;28;21112;-71
2023/10/13 09:12:18;;;;;;;9.17;5.70;;;20.70;99.90;;;;;;4958280;28;20953;-71
2023/10/13 09:14:58;;;;;;;10.83;5.83;;;20.60;99.90;;;;;;5012373;28;20583;-71
2023/10/13 09:17:35;;;;;;;11.20;6.03;;;20.60;99.90;;;;;;5016915;28;20427;-70
2023/10/13 09:25:37;;;;;;;15.50;6.40;;;21.00;99.90;;;;;;5018397;28;20433;-71
2023/10/13 09:28:17;;;;;;;12.37;5.90;;;21.20;99.90;;;;;;5026067;28;20908;-71
2023/10/13 09:30:52;;;;;;;13.83;6.50;;;21.40;99.90;;;;;;5014370;28;20429;-71
2023/10/13 09:33:36;;;;;;;14.40;6.20;;;21.60;99.90;;;;;;5019000;28;20511;-71
2023/10/13 09:36:06;;;;;;;12.10;5.67;;;21.70;99.90;;;;;;5008588;28;20413;-71
2023/10/13 09:38:40;;;;;;;10.07;5.80;;;21.90;99.90;;;;;;5014090;28;20421;-71
2023/10/13 09:41:25;;;;;;;12.03;5.70;;;21.90;99.90;;;;;;5018575;28;20417;-71
2023/10/13 09:43:52;;;;;;;7.80;5.23;;;21.90;99.90;;;;;;5009005;28;20471;-71
2023/10/13 09:46:26;;;;;;;11.10;5.53;;;22.00;99.90;;;;;;5019568;28;20410;-71
2023/10/13 09:49:14;;;;;;;11.13;5.90;;;22.10;99.90;;;;;;5026276;28;20420;-71
2023/10/13 09:51:44;;;;;;;9.33;6.07;;;22.20;99.90;;;;;;5020380;28;20456;-71
2023/10/13 09:54:19;;;;;;;9.30;6.23;;;22.20;99.90;;;;;;5022609;28;21752;-71
2023/10/13 09:57:01;;;;;;;11.70;6.30;;;22.40;99.90;;;;;;5010606;28;20440;-71
2023/10/13 09:59:51;;;;;;;12.23;6.40;;;22.40;99.90;;;;;;5018890;28;20497;-71
2023/10/13 10:02:25;;;;;;;9.77;5.00;;;22.50;99.90;;;;;;5023988;28;20422;-71
2023/10/13 10:05:21;;;;;;;10.50;5.60;;;22.60;99.90;;;;;;5021952;28;20516;-71
2023/10/13 10:07:59;;;;;;;10.50;6.50;;;22.60;99.90;;;;;;5023981;28;20428;-71
2023/10/13 10:10:56;;;;;;;14.83;6.77;;;22.50;99.90;;;;;;5019253;28;20436;-71
2023/10/13 10:13:34;;;;;;;10.63;5.30;;;22.60;99.90;;;;;;5021775;28;20433;-71
2023/10/13 10:16:19;;;;;;;12.70;6.80;;;22.60;99.90;;;;;;5017845;28;20451;-72
2023/10/13 10:18:45;;;;;;;13.07;6.80;;;22.60;99.90;;;;;;5020808;28;20454;-71
2023/10/13 10:21:12;;;;;;;10.43;7.00;;;22.60;99.90;;;;;;5023679;28;20523;-71
2023/10/13 10:23:43;;;;;;;10.30;6.47;;;22.40;99.90;;;;;;5017499;28;20194;-71
2023/10/13 10:26:15;;;;;;;10.67;7.03;;;22.40;99.90;;;;;;5021814;28;20440;-71
2023/10/13 10:28:43;;;;;;;10.77;6.30;;;22.40;99.90;;;;;;5019414;28;20417;-71
2023/10/13 10:31:21;;;;;;;13.43;6.90;;;22.40;99.90;;;;;;5016174;28;20432;-71
2023/10/13 10:33:50;;;;;;;11.00;6.27;;;22.30;99.90;;;;;;5014919;28;20464;-71
2023/10/13 10:36:29;;;;;;;8.40;6.30;;;22.30;99.90;;;;;;5023259;28;20495;-71
2023/10/13 10:38:59;;;;;;;12.13;6.73;;;22.20;99.90;;;;;;5021516;28;20436;-71
2023/10/13 10:42:15;;;;;;;11.03;6.10;;;22.20;99.90;;;;;;5022563;28;20424;-71
2023/10/13 10:44:34;;;;;;;8.87;6.30;;;22.10;99.90;;;;;;5012426;28;20452;-71
2023/10/13 10:47:32;;;;;;;14.33;7.80;;;22.10;99.90;;;;;;5033332;28;20470;-71
2023/10/13 10:50:00;;;;;;;8.30;6.40;;;22.00;99.90;;;;;;5013033;28;20494;-71
2023/10/13 10:52:33;;;;;;;13.30;7.00;;;22.10;99.90;;;;;;5020211;28;20524;-71
2023/10/13 10:55:02;;;;;;;14.53;7.27;;;22.10;99.90;;;;;;5023402;28;21165;-71
2023/10/13 10:57:36;;;;;;;12.73;7.20;;;22.00;99.90;;;;;;5017120;28;20417;-71
2023/10/13 11:00:12;;;;;;;8.43;6.93;;;22.00;99.90;;;;;;5021604;28;20447;-71
2023/10/13 11:02:38;;;;;;;9.00;7.37;;;22.10;99.90;;;;;;5023020;28;20420;-71
2023/10/13 11:05:06;;;;;;;8.13;6.77;;;22.10;99.90;;;;;;5026019;28;20441;-71
2023/10/13 11:07:34;;;;;;;9.17;7.63;;;22.10;99.90;;;;;;5030908;28;20191;-71
2023/10/13 11:10:27;;;;;;;9.37;6.63;;;22.10;99.90;;;;;;5029532;28;20490;-71
2023/10/13 11:13:13;;;;;;;12.23;7.50;;;22.10;99.90;;;;;;5019553;28;20440;-71
2023/10/13 11:15:44;;;;;;;12.30;7.80;;;22.20;99.90;;;;;;5021993;28;20464;-72
2023/10/13 11:18:16;;;;;;;12.67;8.17;;;22.20;99.90;;;;;;5020243;28;20490;-71
2023/10/13 11:20:44;;;;;;;11.40;7.20;;;22.20;99.90;;;;;;5021274;28;20491;-71
2023/10/13 11:23:15;;;;;;;14.13;7.20;;;22.30;99.90;;;;;;5017684;28;20417;-71
2023/10/13 11:25:44;;;;;;;9.47;7.03;;;22.20;99.90;;;;;;5020824;28;21399;-71
2023/10/13 11:28:20;;;;;;;9.83;7.70;;;22.30;99.90;;;;;;5027486;28;20413;-71
2023/10/13 11:30:51;;;;;;;11.60;7.70;;;22.30;99.90;;;;;;5015871;28;20971;-71
2023/10/13 11:33:21;;;;;;;13.07;7.27;;;22.30;99.90;;;;;;5023982;28;20446;-71
2023/10/13 11:43:35;;;;;;;13.60;7.70;;;22.20;99.90;;;;;;5021569;28;20490;-71
2023/10/13 11:48:36;;;;;;;16.17;6.80;;;22.30;99.90;;;;;;5028926;28;20474;-71
2023/10/13 11:51:08;;;;;;;10.53;7.57;;;22.30;99.90;;;;;;5023376;28;20751;-71
2023/10/13 11:53:38;;;;;;;9.50;7.30;;;22.40;99.90;;;;;;5027120;28;20437;-70
2023/10/13 11:56:11;;;;;;;12.73;6.93;;;22.60;99.90;;;;;;5019671;28;20449;-71
2023/10/13 11:58:38;;;;;;;11.27;8.13;;;22.80;99.90;;;;;;5027114;28;20467;-71
2023/10/13 12:11:47;;;;;;;13.17;7.33;;;23.50;99.90;;;;;;5016074;28;20831;-71
2023/10/13 12:14:21;;;;;;;14.63;7.40;;;23.60;99.90;;;;;;5024086;28;21072;-71
2023/10/13 12:16:52;;;;;;;11.60;7.20;;;23.70;99.90;;;;;;5015887;28;20421;-71
2023/10/13 12:19:23;;;;;;;11.20;6.70;;;23.80;99.90;;;;;;5024691;28;20425;-71
2023/10/13 12:21:55;;;;;;;12.50;8.27;;;23.90;99.90;;;;;;5024418;28;20425;-71
2023/10/13 12:27:35;;;;;;;15.90;6.90;;;24.10;99.90;;;;;;5017497;28;20413;-71
2023/10/13 12:29:52;;;;;;;10.43;6.33;;;24.10;99.90;;;;;;5014366;28;21027;-71
2023/10/13 12:32:30;;;;;;;15.00;7.03;;;24.20;99.90;;;;;;5024107;28;20436;-71
2023/10/13 12:35:16;;;;;;;11.57;6.83;;;24.30;99.90;;;;;;5023407;28;20471;-71
2023/10/13 12:53:51;;;;;;;13.03;7.47;;;24.20;99.90;;;;;;5015140;28;20483;-71
2023/10/13 12:56:25;;;;;;;7.70;6.40;;;24.10;99.90;;;;;;5016626;28;20422;-71
2023/10/13 12:58:52;;;;;;;16.60;7.83;;;24.00;99.90;;;;;;5024428;28;20428;-71
2023/10/13 13:01:22;;;;;;;15.30;7.17;;;23.90;99.90;;;;;;5025640;28;20429;-71
2023/10/13 13:03:55;;;;;;;13.40;6.60;;;23.80;99.90;;;;;;5022897;28;20448;-71
2023/10/13 13:06:24;;;;;;;10.07;6.70;;;23.70;99.90;;;;;;5024081;28;20508;-71
2023/10/13 13:08:54;;;;;;;19.50;7.50;;;23.60;99.90;;;;;;5024119;28;20495;-71
2023/10/13 13:11:20;;;;;;;13.20;6.70;;;23.50;99.90;;;;;;5024705;28;20424;-71
2023/10/13 13:13:46;;;;;;;13.27;6.97;;;23.40;99.90;;;;;;5020772;28;20460;-71
2023/10/13 13:16:23;;;;;;;17.00;6.77;;;23.40;99.90;;;;;;5023228;28;20847;-71
2023/10/13 13:18:50;;;;;;;12.30;7.20;;;23.40;99.90;;;;;;5013216;28;20424;-71
2023/10/13 13:21:25;;;;;;;11.13;6.73;;;23.50;99.90;;;;;;5023561;28;20448;-71
2023/10/13 13:23:56;;;;;;;16.23;7.70;;;23.40;99.90;;;;;;5024587;28;20447;-71
2023/10/13 13:26:25;;;;;;;12.40;6.23;;;23.40;99.90;;;;;;5019931;28;20421;-71
2023/10/13 13:28:51;;;;;;;15.23;7.40;;;23.30;99.90;;;;;;5030767;28;20521;-71
2023/10/13 13:31:17;;;;;;;17.13;7.17;;;23.20;99.90;;;;;;5016344;28;21001;-71
2023/10/13 13:33:43;;;;;;;13.93;6.63;;;23.20;99.90;;;;;;5022801;28;20208;-71
2023/10/13 13:36:15;;;;;;;13.20;7.00;;;23.20;99.90;;;;;;5025017;28;20416;-71
2023/10/13 13:38:49;;;;;;;14.20;6.67;;;23.10;99.90;;;;;;5021484;28;20437;-71
2023/10/13 13:41:16;;;;;;;12.23;6.00;;;23.10;99.90;;;;;;5022231;28;20437;-71
2023/10/13 13:46:19;;;;;;;15.47;7.30;;;23.20;99.90;;;;;;5020694;28;20433;-71
2023/10/13 13:48:48;;;;;;;13.37;6.60;;;23.30;99.90;;;;;;5027089;28;20464;-71
2023/10/13 13:51:14;;;;;;;13.53;6.10;;;23.30;99.90;;;;;;5018250;28;21148;-71
2023/10/13 13:53:47;;;;;;;11.13;5.97;;;23.30;99.90;;;;;;5026083;28;20441;-71
2023/10/13 13:56:16;;;;;;;11.70;6.40;;;23.30;99.90;;;;;;5020694;28;20416;-71
2023/10/13 13:58:43;;;;;;;16.57;6.77;;;23.20;99.90;;;;;;5023708;28;20482;-71
2023/10/13 14:01:12;;;;;;;16.07;6.67;;;23.10;99.90;;;;;;5023917;28;20830;-71
2023/10/13 14:03:50;;;;;;;17.53;6.40;;;23.10;99.90;;;;;;5020438;28;21309;-71
2023/10/13 14:06:26;;;;;;;11.40;5.70;;;23.00;99.90;;;;;;5022078;28;20413;-71
2023/10/13 14:08:59;;;;;;;9.40;6.23;;;22.90;99.90;;;;;;5009237;28;20405;-71
2023/10/13 14:16:53;;;;;;;17.30;6.97;;;22.90;99.90;;;;;;5028163;28;20421;-72
2023/10/13 14:19:29;;;;;;;12.03;6.00;;;22.90;99.90;;;;;;5025120;28;20471;-72
2023/10/13 14:21:56;;;;;;;18.13;7.37;;;22.90;99.90;;;;;;5022302;28;20423;-71
2023/10/13 14:24:33;;;;;;;14.70;6.70;;;23.00;99.90;;;;;;5024634;28;21293;-71
2023/10/13 14:27:10;;;;;;;13.40;5.57;;;23.00;99.90;;;;;;5015436;28;20417;-71
2023/10/13 14:29:40;;;;;;;18.10;6.87;;;23.00;99.90;;;;;;5014890;28;20474;-71
2023/10/13 14:32:13;;;;;;;10.00;5.90;;;22.90;99.90;;;;;;5020920;28;20456;-71
2023/10/13 14:34:43;;;;;;;15.10;6.43;;;22.90;99.90;;;;;;5021053;28;20913;-71
2023/10/13 14:37:12;;;;;;;13.70;7.77;;;22.80;99.90;;;;;;5023984;28;20413;-72
2023/10/13 14:39:39;;;;;;;12.70;6.40;;;22.80;99.90;;;;;;5019857;28;20425;-71
2023/10/13 14:42:08;;;;;;;13.43;6.27;;;22.80;99.90;;;;;;5023193;28;20445;-72
2023/10/13 14:44:34;;;;;;;13.63;6.90;;;22.80;99.90;;;;;;5017672;28;20456;-71
2023/10/13 14:47:01;;;;;;;14.10;6.83;;;22.70;99.90;;;;;;5021763;28;20766;-71
2023/10/13 14:49:27;;;;;;;14.77;6.00;;;22.70;99.90;;;;;;5023809;28;20446;-71
2023/10/13 14:51:55;;;;;;;15.20;7.60;;;22.60;99.90;;;;;;5021078;28;20456;-71
2023/10/13 14:54:33;;;;;;;15.57;6.37;;;22.60;99.90;;;;;;5020355;28;20470;-71
2023/10/13 14:57:00;;;;;;;14.37;6.03;;;22.50;99.90;;;;;;5019792;28;20419;-71
2023/10/13 14:59:27;;;;;;;15.83;5.80;;;22.50;99.90;;;;;;5019817;28;20418;-71
2023/10/13 15:01:53;;;;;;;22.43;6.90;;;22.40;99.90;;;;;;5027662;28;20503;-71
2023/10/13 15:04:24;;;;;;;11.13;6.13;;;22.40;99.90;;;;;;5022119;28;20445;-71
2023/10/13 15:06:50;;;;;;;8.43;6.10;;;22.40;99.90;;;;;;5029313;28;20931;-72
2023/10/13 15:09:23;;;;;;;12.20;6.30;;;22.30;99.90;;;;;;5027639;28;20444;-71
2023/10/13 15:11:52;;;;;;;16.10;6.50;;;22.30;99.90;;;;;;5027317;28;20202;-70
2023/10/13 15:14:20;;;;;;;15.90;7.10;;;22.30;99.90;;;;;;5027557;28;20475;-71
2023/10/13 15:16:46;;;;;;;11.80;5.70;;;22.30;99.90;;;;;;5024664;28;20417;-70
2023/10/13 15:19:12;;;;;;;10.57;5.70;;;22.20;99.90;;;;;;5024376;28;20448;-71
2023/10/13 15:21:40;;;;;;;16.67;7.80;;;22.20;99.90;;;;;;5013516;28;20787;-71
2023/10/13 15:24:25;;;;;;;10.97;5.80;;;22.20;99.90;;;;;;5015696;28;21020;-70
2023/10/13 15:26:56;;;;;;;19.33;7.30;;;22.20;99.90;;;;;;5007550;28;20419;-71
2023/10/13 15:29:26;;;;;;;16.57;6.47;;;22.10;99.90;;;;;;5012863;28;20547;-71
2023/10/13 15:34:26;;;;;;;14.50;5.30;;;22.10;99.90;;;;;;5011611;28;20493;-71
2023/10/13 15:36:54;;;;;;;13.90;5.80;;;22.00;99.90;;;;;;5015026;28;20428;-71
2023/10/13 15:39:23;;;;;;;14.17;6.10;;;22.00;99.90;;;;;;5017780;28;20793;-71
2023/10/13 15:41:53;;;;;;;11.47;6.93;;;22.00;99.90;;;;;;5026366;28;20420;-71
2023/10/13 15:44:20;;;;;;;12.90;6.10;;;22.00;99.90;;;;;;5020101;28;20440;-70
2023/10/13 15:46:49;;;;;;;13.63;6.00;;;22.00;99.90;;;;;;5022649;28;20424;-70
2023/10/13 15:49:15;;;;;;;13.13;7.07;;;22.00;99.90;;;;;;5016035;28;20777;-71
2023/10/13 15:51:41;;;;;;;17.43;7.27;;;22.00;99.90;;;;;;5038192;28;20417;-71
2023/10/13 15:54:16;;;;;;;10.90;5.60;;;21.90;99.90;;;;;;5015981;28;20552;-71
2023/10/13 15:56:47;;;;;;;10.80;6.33;;;22.00;99.90;;;;;;5015168;28;20792;-71
2023/10/13 15:59:13;;;;;;;18.90;5.97;;;21.90;99.90;;;;;;5015858;28;20428;-70
2023/10/13 16:01:40;;;;;;;13.33;5.57;;;21.90;99.90;;;;;;5017803;28;20471;-71
2023/10/13 16:04:13;;;;;;;15.53;6.00;;;21.90;99.90;;;;;;5022435;28;20536;-71
2023/10/13 16:06:46;;;;;;;10.77;6.23;;;21.90;99.90;;;;;;5012707;28;20426;-71
2023/10/13 16:09:19;;;;;;;12.30;6.77;;;21.90;99.90;;;;;;5020728;28;20417;-70
2023/10/13 16:11:45;;;;;;;11.67;6.57;;;21.90;99.90;;;;;;5025479;28;20445;-70
2023/10/13 16:14:17;;;;;;;12.40;6.40;;;21.80;99.90;;;;;;5024442;28;20616;-71
2023/10/13 16:16:46;;;;;;;15.63;5.93;;;21.80;99.90;;;;;;5022769;28;20421;-71
2023/10/13 16:19:25;;;;;;;17.23;6.30;;;21.80;99.90;;;;;;5025079;28;20421;-71
2023/10/13 16:21:53;;;;;;;13.03;7.03;;;21.80;99.90;;;;;;5021755;28;20432;-71
2023/10/13 16:24:19;;;;;;;15.23;6.20;;;21.70;99.90;;;;;;5027448;28;20518;-71
2023/10/13 16:26:52;;;;;;;11.70;6.00;;;21.70;99.90;;;;;;5022870;28;21135;-72
2023/10/13 16:29:20;;;;;;;13.97;5.90;;;21.70;99.90;;;;;;5019165;28;20437;-71
2023/10/13 16:31:46;;;;;;;12.63;5.80;;;21.70;99.90;;;;;;5022462;28;20456;-71
2023/10/13 16:34:15;;;;;;;14.13;5.63;;;21.70;99.90;;;;;;5022958;28;21077;-72
2023/10/13 16:36:44;;;;;;;11.87;6.47;;;21.60;99.90;;;;;;5026000;28;20255;-72
2023/10/13 16:39:11;;;;;;;8.73;6.20;;;21.60;99.90;;;;;;5021258;28;20409;-72